sensor_id;sensor_type;location;lat;lon;timestamp;temperature;humidity
5461;DHT22;2753;49.196;8.286;2022-07-29T00:02:12;23.80;63.70
5461;DHT22;2753;49.196;8.286;2022-07-29T00:04:38;23.80;64.00
5461;DHT22;2753;49.196;8.286;2022-07-29T00:07:04;23.80;64.40
5461;DHT22;2753;49.196;8.286;2022-07-29T00:09:31;23.80;64.40
5461;DHT22;2753;49.196;8.286;2022-07-29T00:11:59;23.70;64.70
5461;DHT22;2753;49.196;8.286;2022-07-29T00:14:26;23.70;64.50
5461;DHT22;2753;49.196;8.286;2022-07-29T00:16:52;23.70;64.80
5461;DHT22;2753;49.196;8.286;2022-07-29T00:19:18;23.80;64.90
5461;DHT22;2753;49.196;8.286;2022-07-29T00:21:43;23.70;65.20
5461;DHT22;2753;49.196;8.286;2022-07-29T00:24:09;23.60;65.40
5461;DHT22;2753;49.196;8.286;2022-07-29T00:26:35;23.60;65.60
5461;DHT22;2753;49.196;8.286;2022-07-29T00:29:02;23.50;66.20
5461;DHT22;2753;49.196;8.286;2022-07-29T00:31:28;23.40;66.50
5461;DHT22;2753;49.196;8.286;2022-07-29T00:33:54;23.30;67.10
5461;DHT22;2753;49.196;8.286;2022-07-29T00:36:20;23.20;67.20
5461;DHT22;2753;49.196;8.286;2022-07-29T00:38:50;23.20;67.20
5461;DHT22;2753;49.196;8.286;2022-07-29T00:41:17;23.20;67.00
5461;DHT22;2753;49.196;8.286;2022-07-29T00:43:44;23.20;66.90
5461;DHT22;2753;49.196;8.286;2022-07-29T00:46:10;23.20;66.60
5461;DHT22;2753;49.196;8.286;2022-07-29T00:48:36;23.30;66.80
5461;DHT22;2753;49.196;8.286;2022-07-29T00:51:04;23.30;66.90
5461;DHT22;2753;49.196;8.286;2022-07-29T00:53:30;23.20;67.70
5461;DHT22;2753;49.196;8.286;2022-07-29T00:55:58;23.20;67.70
5461;DHT22;2753;49.196;8.286;2022-07-29T00:58:24;23.20;67.80
5461;DHT22;2753;49.196;8.286;2022-07-29T01:00:52;23.10;67.80
5461;DHT22;2753;49.196;8.286;2022-07-29T01:03:18;23.10;67.60
5461;DHT22;2753;49.196;8.286;2022-07-29T01:05:45;23.00;67.50
5461;DHT22;2753;49.196;8.286;2022-07-29T01:08:13;23.10;67.60
5461;DHT22;2753;49.196;8.286;2022-07-29T01:10:40;22.90;67.40
5461;DHT22;2753;49.196;8.286;2022-07-29T01:13:07;22.90;67.60
5461;DHT22;2753;49.196;8.286;2022-07-29T01:15:47;22.90;67.40
5461;DHT22;2753;49.196;8.286;2022-07-29T01:18:22;22.90;67.20
5461;DHT22;2753;49.196;8.286;2022-07-29T01:29:47;22.70;66.60
5461;DHT22;2753;49.196;8.286;2022-07-29T01:32:19;22.70;66.60
5461;DHT22;2753;49.196;8.286;2022-07-29T01:35:13;22.40;66.50
5461;DHT22;2753;49.196;8.286;2022-07-29T01:37:50;22.50;66.30
5461;DHT22;2753;49.196;8.286;2022-07-29T01:40:51;22.60;66.30
5461;DHT22;2753;49.196;8.286;2022-07-29T01:43:23;22.60;66.00
5461;DHT22;2753;49.196;8.286;2022-07-29T01:46:04;22.60;65.80
5461;DHT22;2753;49.196;8.286;2022-07-29T01:48:42;22.60;66.00
5461;DHT22;2753;49.196;8.286;2022-07-29T01:51:17;22.50;65.80
5461;DHT22;2753;49.196;8.286;2022-07-29T01:54:04;22.40;65.60
5461;DHT22;2753;49.196;8.286;2022-07-29T01:56:32;22.50;65.70
5461;DHT22;2753;49.196;8.286;2022-07-29T01:58:59;22.40;65.60
5461;DHT22;2753;49.196;8.286;2022-07-29T02:01:27;22.40;66.00
5461;DHT22;2753;49.196;8.286;2022-07-29T02:03:55;22.40;65.80
5461;DHT22;2753;49.196;8.286;2022-07-29T02:06:22;22.30;65.80
5461;DHT22;2753;49.196;8.286;2022-07-29T02:08:49;22.30;65.80
5461;DHT22;2753;49.196;8.286;2022-07-29T02:11:17;22.40;65.80
5461;DHT22;2753;49.196;8.286;2022-07-29T02:13:44;22.30;65.40
5461;DHT22;2753;49.196;8.286;2022-07-29T02:16:10;22.30;65.80
5461;DHT22;2753;49.196;8.286;2022-07-29T02:18:39;22.30;66.70
5461;DHT22;2753;49.196;8.286;2022-07-29T02:21:07;22.20;66.00
5461;DHT22;2753;49.196;8.286;2022-07-29T02:23:35;22.20;65.90
5461;DHT22;2753;49.196;8.286;2022-07-29T02:26:03;22.20;66.10
5461;DHT22;2753;49.196;8.286;2022-07-29T02:28:29;22.20;66.40
5461;DHT22;2753;49.196;8.286;2022-07-29T02:30:58;22.10;66.20
5461;DHT22;2753;49.196;8.286;2022-07-29T02:33:25;22.10;66.30
5461;DHT22;2753;49.196;8.286;2022-07-29T02:35:52;22.10;66.20
5461;DHT22;2753;49.196;8.286;2022-07-29T02:38:19;22.00;66.50
5461;DHT22;2753;49.196;8.286;2022-07-29T02:41:10;22.00;66.20
5461;DHT22;2753;49.196;8.286;2022-07-29T02:43:37;22.00;66.50
5461;DHT22;2753;49.196;8.286;2022-07-29T02:46:05;22.00;66.20
5461;DHT22;2753;49.196;8.286;2022-07-29T02:48:40;22.00;66.20
5461;DHT22;2753;49.196;8.286;2022-07-29T02:51:19;21.90;66.10
5461;DHT22;2753;49.196;8.286;2022-07-29T02:53:48;21.90;66.50
5461;DHT22;2753;49.196;8.286;2022-07-29T02:56:16;21.80;66.60
5461;DHT22;2753;49.196;8.286;2022-07-29T02:58:52;21.80;66.80
5461;DHT22;2753;49.196;8.286;2022-07-29T03:01:29;21.80;66.60
5461;DHT22;2753;49.196;8.286;2022-07-29T03:03:55;21.80;66.50
5461;DHT22;2753;49.196;8.286;2022-07-29T03:06:24;21.80;66.80
5461;DHT22;2753;49.196;8.286;2022-07-29T03:08:51;21.70;66.90
5461;DHT22;2753;49.196;8.286;2022-07-29T03:11:17;21.70;66.90
5461;DHT22;2753;49.196;8.286;2022-07-29T03:13:44;21.60;67.20
5461;DHT22;2753;49.196;8.286;2022-07-29T03:16:10;21.60;67.30
5461;DHT22;2753;49.196;8.286;2022-07-29T03:18:36;21.60;67.30
5461;DHT22;2753;49.196;8.286;2022-07-29T03:21:03;21.60;67.30
5461;DHT22;2753;49.196;8.286;2022-07-29T03:23:29;21.60;68.00
5461;DHT22;2753;49.196;8.286;2022-07-29T03:25:55;21.50;67.70
5461;DHT22;2753;49.196;8.286;2022-07-29T03:28:21;21.50;67.70
5461;DHT22;2753;49.196;8.286;2022-07-29T03:30:48;21.50;67.90
5461;DHT22;2753;49.196;8.286;2022-07-29T03:33:14;21.40;67.80
5461;DHT22;2753;49.196;8.286;2022-07-29T03:35:40;21.40;67.50
5461;DHT22;2753;49.196;8.286;2022-07-29T03:38:06;21.40;67.60
5461;DHT22;2753;49.196;8.286;2022-07-29T03:40:35;21.40;69.10
5461;DHT22;2753;49.196;8.286;2022-07-29T03:43:02;21.30;68.10
5461;DHT22;2753;49.196;8.286;2022-07-29T03:45:30;21.30;68.30
5461;DHT22;2753;49.196;8.286;2022-07-29T03:48:01;21.20;68.40
5461;DHT22;2753;49.196;8.286;2022-07-29T03:50:28;21.20;68.20
5461;DHT22;2753;49.196;8.286;2022-07-29T03:52:56;21.20;67.90
5461;DHT22;2753;49.196;8.286;2022-07-29T03:55:22;21.20;67.90
5461;DHT22;2753;49.196;8.286;2022-07-29T03:57:49;21.20;67.70
5461;DHT22;2753;49.196;8.286;2022-07-29T04:00:16;21.20;67.60
5461;DHT22;2753;49.196;8.286;2022-07-29T04:02:43;21.20;67.60
5461;DHT22;2753;49.196;8.286;2022-07-29T04:05:14;21.20;67.60
5461;DHT22;2753;49.196;8.286;2022-07-29T04:07:44;21.20;67.30
5461;DHT22;2753;49.196;8.286;2022-07-29T04:10:10;21.20;67.20
5461;DHT22;2753;49.196;8.286;2022-07-29T04:12:35;21.20;67.20
5461;DHT22;2753;49.196;8.286;2022-07-29T04:15:03;21.20;67.30
5461;DHT22;2753;49.196;8.286;2022-07-29T04:17:29;21.10;67.50
5461;DHT22;2753;49.196;8.286;2022-07-29T04:19:54;21.10;67.50
5461;DHT22;2753;49.196;8.286;2022-07-29T04:22:20;21.00;67.40
5461;DHT22;2753;49.196;8.286;2022-07-29T04:24:46;21.00;67.60
5461;DHT22;2753;49.196;8.286;2022-07-29T04:27:12;21.00;67.30
5461;DHT22;2753;49.196;8.286;2022-07-29T04:29:37;21.00;67.20
5461;DHT22;2753;49.196;8.286;2022-07-29T04:32:03;21.00;67.20
5461;DHT22;2753;49.196;8.286;2022-07-29T04:34:29;21.00;67.10
5461;DHT22;2753;49.196;8.286;2022-07-29T04:36:55;21.00;67.20
5461;DHT22;2753;49.196;8.286;2022-07-29T04:39:21;21.00;67.10
5461;DHT22;2753;49.196;8.286;2022-07-29T04:41:46;21.00;67.30
5461;DHT22;2753;49.196;8.286;2022-07-29T04:44:12;20.90;67.50
5461;DHT22;2753;49.196;8.286;2022-07-29T04:46:38;20.90;67.50
5461;DHT22;2753;49.196;8.286;2022-07-29T04:49:04;20.90;67.50
5461;DHT22;2753;49.196;8.286;2022-07-29T04:51:30;20.90;67.70
5461;DHT22;2753;49.196;8.286;2022-07-29T04:53:56;20.90;67.90
5461;DHT22;2753;49.196;8.286;2022-07-29T04:56:21;20.90;67.90
5461;DHT22;2753;49.196;8.286;2022-07-29T04:58:47;20.90;68.20
5461;DHT22;2753;49.196;8.286;2022-07-29T05:01:13;20.90;68.80
5461;DHT22;2753;49.196;8.286;2022-07-29T05:03:39;20.90;67.80
5461;DHT22;2753;49.196;8.286;2022-07-29T05:06:05;21.00;67.70
5461;DHT22;2753;49.196;8.286;2022-07-29T05:08:31;21.00;68.00
5461;DHT22;2753;49.196;8.286;2022-07-29T05:10:57;21.00;67.80
5461;DHT22;2753;49.196;8.286;2022-07-29T05:13:22;21.00;68.00
5461;DHT22;2753;49.196;8.286;2022-07-29T05:15:48;21.00;68.00
5461;DHT22;2753;49.196;8.286;2022-07-29T05:18:14;21.00;67.70
5461;DHT22;2753;49.196;8.286;2022-07-29T05:20:40;21.00;67.90
5461;DHT22;2753;49.196;8.286;2022-07-29T05:23:05;21.00;67.70
5461;DHT22;2753;49.196;8.286;2022-07-29T05:25:31;21.00;68.30
5461;DHT22;2753;49.196;8.286;2022-07-29T05:27:57;21.00;68.10
5461;DHT22;2753;49.196;8.286;2022-07-29T05:30:23;21.00;68.20
5461;DHT22;2753;49.196;8.286;2022-07-29T05:32:49;21.00;68.00
5461;DHT22;2753;49.196;8.286;2022-07-29T05:35:15;21.00;68.20
5461;DHT22;2753;49.196;8.286;2022-07-29T05:37:41;21.10;68.10
5461;DHT22;2753;49.196;8.286;2022-07-29T05:40:07;21.10;68.50
5461;DHT22;2753;49.196;8.286;2022-07-29T05:42:34;21.10;68.70
5461;DHT22;2753;49.196;8.286;2022-07-29T05:45:00;21.20;68.80
5461;DHT22;2753;49.196;8.286;2022-07-29T05:47:26;21.20;68.90
5461;DHT22;2753;49.196;8.286;2022-07-29T05:49:51;21.20;69.30
5461;DHT22;2753;49.196;8.286;2022-07-29T05:52:17;21.20;69.30
5461;DHT22;2753;49.196;8.286;2022-07-29T05:54:43;21.20;69.10
5461;DHT22;2753;49.196;8.286;2022-07-29T05:57:18;21.20;69.60
5461;DHT22;2753;49.196;8.286;2022-07-29T05:59:44;21.30;69.70
5461;DHT22;2753;49.196;8.286;2022-07-29T06:02:10;21.30;69.90
5461;DHT22;2753;49.196;8.286;2022-07-29T06:04:37;21.40;70.50
5461;DHT22;2753;49.196;8.286;2022-07-29T06:07:02;21.40;70.10
5461;DHT22;2753;49.196;8.286;2022-07-29T06:09:28;21.50;70.30
5461;DHT22;2753;49.196;8.286;2022-07-29T06:11:54;21.50;71.20
5461;DHT22;2753;49.196;8.286;2022-07-29T06:14:20;21.50;70.20
5461;DHT22;2753;49.196;8.286;2022-07-29T06:16:45;21.60;71.90
5461;DHT22;2753;49.196;8.286;2022-07-29T06:19:11;21.60;72.00
5461;DHT22;2753;49.196;8.286;2022-07-29T06:21:42;21.60;73.90
5461;DHT22;2753;49.196;8.286;2022-07-29T06:24:07;21.70;74.20
5461;DHT22;2753;49.196;8.286;2022-07-29T06:26:33;21.60;74.30
5461;DHT22;2753;49.196;8.286;2022-07-29T06:28:59;21.60;74.80
5461;DHT22;2753;49.196;8.286;2022-07-29T06:31:25;21.60;75.00
5461;DHT22;2753;49.196;8.286;2022-07-29T06:33:50;21.70;74.00
5461;DHT22;2753;49.196;8.286;2022-07-29T06:36:16;21.80;75.10
5461;DHT22;2753;49.196;8.286;2022-07-29T06:38:42;21.80;76.70
5461;DHT22;2753;49.196;8.286;2022-07-29T06:41:08;21.90;77.10
5461;DHT22;2753;49.196;8.286;2022-07-29T06:43:41;22.00;76.20
5461;DHT22;2753;49.196;8.286;2022-07-29T06:46:11;22.10;76.00
5461;DHT22;2753;49.196;8.286;2022-07-29T06:48:38;22.10;76.50
5461;DHT22;2753;49.196;8.286;2022-07-29T06:51:05;22.20;76.70
5461;DHT22;2753;49.196;8.286;2022-07-29T06:53:31;22.20;77.00
5461;DHT22;2753;49.196;8.286;2022-07-29T06:56:01;22.20;77.40
5461;DHT22;2753;49.196;8.286;2022-07-29T06:58:28;22.20;78.40
5461;DHT22;2753;49.196;8.286;2022-07-29T07:00:55;22.20;78.80
5461;DHT22;2753;49.196;8.286;2022-07-29T07:03:21;22.30;79.70
5461;DHT22;2753;49.196;8.286;2022-07-29T07:05:48;22.40;80.00
5461;DHT22;2753;49.196;8.286;2022-07-29T07:08:14;22.40;79.30
5461;DHT22;2753;49.196;8.286;2022-07-29T07:10:41;22.50;78.70
5461;DHT22;2753;49.196;8.286;2022-07-29T07:13:07;22.50;78.50
5461;DHT22;2753;49.196;8.286;2022-07-29T07:15:33;22.60;78.40
5461;DHT22;2753;49.196;8.286;2022-07-29T07:17:59;22.70;78.30
5461;DHT22;2753;49.196;8.286;2022-07-29T07:20:25;22.70;78.10
5461;DHT22;2753;49.196;8.286;2022-07-29T07:22:51;22.80;77.90
5461;DHT22;2753;49.196;8.286;2022-07-29T07:25:16;22.90;77.80
5461;DHT22;2753;49.196;8.286;2022-07-29T07:27:43;23.00;78.50
5461;DHT22;2753;49.196;8.286;2022-07-29T07:30:09;22.90;78.80
5461;DHT22;2753;49.196;8.286;2022-07-29T07:32:36;23.10;78.80
5461;DHT22;2753;49.196;8.286;2022-07-29T07:35:03;23.10;77.90
5461;DHT22;2753;49.196;8.286;2022-07-29T07:37:29;23.10;77.60
5461;DHT22;2753;49.196;8.286;2022-07-29T07:39:55;23.10;77.70
5461;DHT22;2753;49.196;8.286;2022-07-29T07:42:21;23.30;77.50
5461;DHT22;2753;49.196;8.286;2022-07-29T07:44:47;23.40;77.10
5461;DHT22;2753;49.196;8.286;2022-07-29T07:47:14;23.40;76.70
5461;DHT22;2753;49.196;8.286;2022-07-29T07:49:40;23.50;76.50
5461;DHT22;2753;49.196;8.286;2022-07-29T07:52:05;23.70;76.10
5461;DHT22;2753;49.196;8.286;2022-07-29T07:54:31;23.80;75.70
5461;DHT22;2753;49.196;8.286;2022-07-29T07:56:57;24.00;75.60
5461;DHT22;2753;49.196;8.286;2022-07-29T07:59:23;24.10;75.20
5461;DHT22;2753;49.196;8.286;2022-07-29T08:01:49;24.30;74.60
5461;DHT22;2753;49.196;8.286;2022-07-29T08:04:15;24.40;74.60
5461;DHT22;2753;49.196;8.286;2022-07-29T08:06:41;24.40;73.40
5461;DHT22;2753;49.196;8.286;2022-07-29T08:09:07;24.30;72.70
5461;DHT22;2753;49.196;8.286;2022-07-29T08:11:33;24.20;72.40
5461;DHT22;2753;49.196;8.286;2022-07-29T08:13:58;24.20;72.40
5461;DHT22;2753;49.196;8.286;2022-07-29T08:16:26;24.30;72.40
5461;DHT22;2753;49.196;8.286;2022-07-29T08:18:52;24.50;72.70
5461;DHT22;2753;49.196;8.286;2022-07-29T08:21:23;24.70;72.30
5461;DHT22;2753;49.196;8.286;2022-07-29T08:23:49;24.90;71.60
5461;DHT22;2753;49.196;8.286;2022-07-29T08:26:18;25.00;71.30
5461;DHT22;2753;49.196;8.286;2022-07-29T08:28:45;25.10;71.20
5461;DHT22;2753;49.196;8.286;2022-07-29T08:31:12;25.20;70.70
5461;DHT22;2753;49.196;8.286;2022-07-29T08:33:38;25.50;70.90
5461;DHT22;2753;49.196;8.286;2022-07-29T08:36:05;25.60;69.90
5461;DHT22;2753;49.196;8.286;2022-07-29T08:38:31;25.70;69.80
5461;DHT22;2753;49.196;8.286;2022-07-29T08:40:58;25.70;68.50
5461;DHT22;2753;49.196;8.286;2022-07-29T08:43:27;25.70;69.00
5461;DHT22;2753;49.196;8.286;2022-07-29T08:45:53;25.80;67.90
5461;DHT22;2753;49.196;8.286;2022-07-29T08:48:21;25.90;67.80
5461;DHT22;2753;49.196;8.286;2022-07-29T08:50:51;25.70;68.50
5461;DHT22;2753;49.196;8.286;2022-07-29T08:53:18;25.70;67.80
5461;DHT22;2753;49.196;8.286;2022-07-29T08:55:46;25.70;68.10
5461;DHT22;2753;49.196;8.286;2022-07-29T08:58:13;25.90;67.90
5461;DHT22;2753;49.196;8.286;2022-07-29T09:00:51;25.80;67.70
5461;DHT22;2753;49.196;8.286;2022-07-29T09:03:20;25.30;68.50
5461;DHT22;2753;49.196;8.286;2022-07-29T09:05:46;25.40;69.30
5461;DHT22;2753;49.196;8.286;2022-07-29T09:08:16;26.00;68.80
5461;DHT22;2753;49.196;8.286;2022-07-29T09:10:43;26.10;68.40
5461;DHT22;2753;49.196;8.286;2022-07-29T09:13:09;26.10;67.90
5461;DHT22;2753;49.196;8.286;2022-07-29T09:15:35;26.20;67.50
5461;DHT22;2753;49.196;8.286;2022-07-29T09:18:01;26.20;66.90
5461;DHT22;2753;49.196;8.286;2022-07-29T09:20:28;26.20;67.30
5461;DHT22;2753;49.196;8.286;2022-07-29T09:23:13;26.20;67.10
5461;DHT22;2753;49.196;8.286;2022-07-29T09:25:40;26.30;66.50
5461;DHT22;2753;49.196;8.286;2022-07-29T09:28:16;26.30;67.30
5461;DHT22;2753;49.196;8.286;2022-07-29T09:30:58;26.50;66.50
5461;DHT22;2753;49.196;8.286;2022-07-29T09:33:31;26.50;65.80
5461;DHT22;2753;49.196;8.286;2022-07-29T09:36:07;26.50;65.50
5461;DHT22;2753;49.196;8.286;2022-07-29T09:38:34;26.80;65.30
5461;DHT22;2753;49.196;8.286;2022-07-29T09:41:01;26.60;65.50
5461;DHT22;2753;49.196;8.286;2022-07-29T09:43:28;26.70;65.10
5461;DHT22;2753;49.196;8.286;2022-07-29T09:45:54;26.60;64.70
5461;DHT22;2753;49.196;8.286;2022-07-29T09:48:22;26.60;65.40
5461;DHT22;2753;49.196;8.286;2022-07-29T09:50:49;26.80;65.30
5461;DHT22;2753;49.196;8.286;2022-07-29T09:53:41;26.80;65.80
5461;DHT22;2753;49.196;8.286;2022-07-29T09:56:07;26.80;64.60
5461;DHT22;2753;49.196;8.286;2022-07-29T09:58:32;26.80;64.40
5461;DHT22;2753;49.196;8.286;2022-07-29T10:00:59;26.80;64.80
5461;DHT22;2753;49.196;8.286;2022-07-29T10:03:25;26.80;64.70
5461;DHT22;2753;49.196;8.286;2022-07-29T10:06:11;26.80;64.90
5461;DHT22;2753;49.196;8.286;2022-07-29T10:08:38;26.60;64.20
5461;DHT22;2753;49.196;8.286;2022-07-29T10:11:12;26.60;64.20
5461;DHT22;2753;49.196;8.286;2022-07-29T10:13:38;26.70;64.40
5461;DHT22;2753;49.196;8.286;2022-07-29T10:16:05;26.90;63.50
5461;DHT22;2753;49.196;8.286;2022-07-29T10:18:31;27.00;63.20
5461;DHT22;2753;49.196;8.286;2022-07-29T10:20:57;27.10;63.00
5461;DHT22;2753;49.196;8.286;2022-07-29T10:23:24;27.00;63.60
5461;DHT22;2753;49.196;8.286;2022-07-29T10:25:50;27.00;62.40
5461;DHT22;2753;49.196;8.286;2022-07-29T10:28:15;27.00;62.40
5461;DHT22;2753;49.196;8.286;2022-07-29T10:30:41;27.00;63.00
5461;DHT22;2753;49.196;8.286;2022-07-29T10:39:43;27.10;62.00
5461;DHT22;2753;49.196;8.286;2022-07-29T10:44:42;27.20;62.70
5461;DHT22;2753;49.196;8.286;2022-07-29T10:47:20;27.30;63.00
5461;DHT22;2753;49.196;8.286;2022-07-29T10:50:01;27.40;61.70
5461;DHT22;2753;49.196;8.286;2022-07-29T10:55:38;27.30;61.70
5461;DHT22;2753;49.196;8.286;2022-07-29T10:58:16;27.20;62.50
5461;DHT22;2753;49.196;8.286;2022-07-29T11:00:42;27.40;62.90
5461;DHT22;2753;49.196;8.286;2022-07-29T11:03:07;27.40;62.20
5461;DHT22;2753;49.196;8.286;2022-07-29T11:06:06;27.40;62.00
5461;DHT22;2753;49.196;8.286;2022-07-29T11:08:31;27.50;59.70
5461;DHT22;2753;49.196;8.286;2022-07-29T11:11:33;27.60;59.80
5461;DHT22;2753;49.196;8.286;2022-07-29T11:13:58;27.70;60.00
5461;DHT22;2753;49.196;8.286;2022-07-29T11:16:24;27.80;60.10
5461;DHT22;2753;49.196;8.286;2022-07-29T11:21:40;28.00;59.20
5461;DHT22;2753;49.196;8.286;2022-07-29T11:24:14;28.00;59.20
5461;DHT22;2753;49.196;8.286;2022-07-29T11:26:40;28.00;59.30
5461;DHT22;2753;49.196;8.286;2022-07-29T11:29:20;28.10;58.90
5461;DHT22;2753;49.196;8.286;2022-07-29T11:31:51;28.10;58.70
5461;DHT22;2753;49.196;8.286;2022-07-29T11:34:27;28.20;58.70
5461;DHT22;2753;49.196;8.286;2022-07-29T11:47:28;28.30;58.00
5461;DHT22;2753;49.196;8.286;2022-07-29T11:49:55;28.30;57.20
5461;DHT22;2753;49.196;8.286;2022-07-29T11:52:22;28.30;57.60
5461;DHT22;2753;49.196;8.286;2022-07-29T11:54:49;28.40;57.40
5461;DHT22;2753;49.196;8.286;2022-07-29T11:57:19;28.40;56.70
5461;DHT22;2753;49.196;8.286;2022-07-29T11:59:46;28.30;56.40
5461;DHT22;2753;49.196;8.286;2022-07-29T12:02:13;28.30;57.40
5461;DHT22;2753;49.196;8.286;2022-07-29T12:04:52;28.40;57.50
5461;DHT22;2753;49.196;8.286;2022-07-29T12:07:34;28.40;56.70
5461;DHT22;2753;49.196;8.286;2022-07-29T12:10:01;28.50;56.30
5461;DHT22;2753;49.196;8.286;2022-07-29T12:12:27;28.50;56.60
5461;DHT22;2753;49.196;8.286;2022-07-29T12:14:53;28.60;56.70
5461;DHT22;2753;49.196;8.286;2022-07-29T12:17:27;28.60;57.10
5461;DHT22;2753;49.196;8.286;2022-07-29T12:19:54;28.60;57.40
5461;DHT22;2753;49.196;8.286;2022-07-29T12:22:26;28.60;57.50
5461;DHT22;2753;49.196;8.286;2022-07-29T12:24:53;28.50;57.20
5461;DHT22;2753;49.196;8.286;2022-07-29T12:27:19;28.50;57.20
5461;DHT22;2753;49.196;8.286;2022-07-29T12:29:55;28.50;57.50
5461;DHT22;2753;49.196;8.286;2022-07-29T12:32:22;28.50;57.90
5461;DHT22;2753;49.196;8.286;2022-07-29T12:34:47;28.50;57.80
5461;DHT22;2753;49.196;8.286;2022-07-29T12:37:13;28.50;57.70
5461;DHT22;2753;49.196;8.286;2022-07-29T12:39:39;28.50;58.00
5461;DHT22;2753;49.196;8.286;2022-07-29T12:42:15;28.60;58.10
5461;DHT22;2753;49.196;8.286;2022-07-29T12:44:49;28.60;58.10
5461;DHT22;2753;49.196;8.286;2022-07-29T12:47:17;28.60;58.40
5461;DHT22;2753;49.196;8.286;2022-07-29T12:49:44;28.60;58.10
5461;DHT22;2753;49.196;8.286;2022-07-29T12:52:32;28.60;57.10
5461;DHT22;2753;49.196;8.286;2022-07-29T12:54:59;28.70;56.10
5461;DHT22;2753;49.196;8.286;2022-07-29T12:57:25;28.70;55.50
5461;DHT22;2753;49.196;8.286;2022-07-29T13:02:29;28.60;55.70
5461;DHT22;2753;49.196;8.286;2022-07-29T13:04:56;28.60;56.50
5461;DHT22;2753;49.196;8.286;2022-07-29T13:07:27;28.70;55.90
5461;DHT22;2753;49.196;8.286;2022-07-29T13:12:36;28.70;55.60
5461;DHT22;2753;49.196;8.286;2022-07-29T13:15:15;28.70;55.00
5461;DHT22;2753;49.196;8.286;2022-07-29T13:17:44;28.70;55.20
5461;DHT22;2753;49.196;8.286;2022-07-29T13:20:12;28.70;55.10
5461;DHT22;2753;49.196;8.286;2022-07-29T13:22:39;28.60;54.90
5461;DHT22;2753;49.196;8.286;2022-07-29T13:25:06;28.60;54.90
5461;DHT22;2753;49.196;8.286;2022-07-29T13:27:36;28.60;55.00
5461;DHT22;2753;49.196;8.286;2022-07-29T13:30:05;28.60;55.20
5461;DHT22;2753;49.196;8.286;2022-07-29T13:32:31;28.50;54.60
5461;DHT22;2753;49.196;8.286;2022-07-29T13:35:02;28.50;54.50
5461;DHT22;2753;49.196;8.286;2022-07-29T13:37:28;28.50;54.50
5461;DHT22;2753;49.196;8.286;2022-07-29T13:39:55;28.50;53.90
5461;DHT22;2753;49.196;8.286;2022-07-29T13:42:21;28.50;54.00
5461;DHT22;2753;49.196;8.286;2022-07-29T13:44:47;28.60;54.20
5461;DHT22;2753;49.196;8.286;2022-07-29T13:47:16;28.60;53.90
5461;DHT22;2753;49.196;8.286;2022-07-29T13:49:41;28.60;53.70
5461;DHT22;2753;49.196;8.286;2022-07-29T13:52:07;28.60;54.00
5461;DHT22;2753;49.196;8.286;2022-07-29T13:54:33;28.60;53.80
5461;DHT22;2753;49.196;8.286;2022-07-29T13:57:06;28.60;53.80
5461;DHT22;2753;49.196;8.286;2022-07-29T13:59:32;28.60;53.40
5461;DHT22;2753;49.196;8.286;2022-07-29T14:01:57;28.60;52.70
5461;DHT22;2753;49.196;8.286;2022-07-29T14:04:23;28.70;53.40
5461;DHT22;2753;49.196;8.286;2022-07-29T14:06:49;28.70;52.50
5461;DHT22;2753;49.196;8.286;2022-07-29T14:09:16;28.70;51.60
5461;DHT22;2753;49.196;8.286;2022-07-29T14:11:42;28.60;51.80
5461;DHT22;2753;49.196;8.286;2022-07-29T14:14:07;28.60;51.80
5461;DHT22;2753;49.196;8.286;2022-07-29T14:16:34;28.70;52.30
5461;DHT22;2753;49.196;8.286;2022-07-29T14:18:59;28.70;51.70
5461;DHT22;2753;49.196;8.286;2022-07-29T14:21:26;28.70;51.50
5461;DHT22;2753;49.196;8.286;2022-07-29T14:23:52;28.70;51.80
5461;DHT22;2753;49.196;8.286;2022-07-29T14:26:20;28.70;51.80
5461;DHT22;2753;49.196;8.286;2022-07-29T14:28:46;28.70;52.10
5461;DHT22;2753;49.196;8.286;2022-07-29T14:31:12;28.80;51.50
5461;DHT22;2753;49.196;8.286;2022-07-29T14:33:37;28.80;51.10
5461;DHT22;2753;49.196;8.286;2022-07-29T14:36:03;28.80;50.90
5461;DHT22;2753;49.196;8.286;2022-07-29T14:38:29;28.80;51.00
5461;DHT22;2753;49.196;8.286;2022-07-29T14:40:54;28.90;51.00
5461;DHT22;2753;49.196;8.286;2022-07-29T14:43:20;28.90;51.20
5461;DHT22;2753;49.196;8.286;2022-07-29T14:45:46;28.90;51.10
5461;DHT22;2753;49.196;8.286;2022-07-29T14:48:11;28.90;50.40
5461;DHT22;2753;49.196;8.286;2022-07-29T14:50:37;28.90;50.90
5461;DHT22;2753;49.196;8.286;2022-07-29T14:53:03;28.80;50.40
5461;DHT22;2753;49.196;8.286;2022-07-29T14:55:29;28.80;50.00
5461;DHT22;2753;49.196;8.286;2022-07-29T14:57:55;28.80;50.60
5461;DHT22;2753;49.196;8.286;2022-07-29T15:00:21;28.80;50.10
5461;DHT22;2753;49.196;8.286;2022-07-29T15:02:48;28.80;50.00
5461;DHT22;2753;49.196;8.286;2022-07-29T15:05:13;28.80;49.80
5461;DHT22;2753;49.196;8.286;2022-07-29T15:07:39;28.90;49.70
5461;DHT22;2753;49.196;8.286;2022-07-29T15:10:05;28.90;50.00
5461;DHT22;2753;49.196;8.286;2022-07-29T15:12:32;28.90;49.80
5461;DHT22;2753;49.196;8.286;2022-07-29T15:14:57;28.90;49.60
5461;DHT22;2753;49.196;8.286;2022-07-29T15:17:23;28.90;49.50
5461;DHT22;2753;49.196;8.286;2022-07-29T15:19:49;28.90;49.80
5461;DHT22;2753;49.196;8.286;2022-07-29T15:22:15;29.00;49.40
5461;DHT22;2753;49.196;8.286;2022-07-29T15:24:40;29.00;49.50
5461;DHT22;2753;49.196;8.286;2022-07-29T15:27:06;29.00;49.00
5461;DHT22;2753;49.196;8.286;2022-07-29T15:29:32;28.90;48.70
5461;DHT22;2753;49.196;8.286;2022-07-29T15:31:58;28.90;48.70
5461;DHT22;2753;49.196;8.286;2022-07-29T15:34:24;28.90;48.50
5461;DHT22;2753;49.196;8.286;2022-07-29T15:36:50;28.90;48.50
5461;DHT22;2753;49.196;8.286;2022-07-29T15:39:17;28.90;48.70
5461;DHT22;2753;49.196;8.286;2022-07-29T15:41:43;28.90;48.50
5461;DHT22;2753;49.196;8.286;2022-07-29T15:44:08;29.00;48.70
5461;DHT22;2753;49.196;8.286;2022-07-29T15:46:34;29.00;48.90
5461;DHT22;2753;49.196;8.286;2022-07-29T15:49:18;29.00;49.20
5461;DHT22;2753;49.196;8.286;2022-07-29T15:51:44;29.00;48.60
5461;DHT22;2753;49.196;8.286;2022-07-29T15:54:09;29.00;47.80
5461;DHT22;2753;49.196;8.286;2022-07-29T15:56:35;29.00;47.60
5461;DHT22;2753;49.196;8.286;2022-07-29T15:59:01;29.00;47.20
5461;DHT22;2753;49.196;8.286;2022-07-29T16:01:26;29.00;47.90
5461;DHT22;2753;49.196;8.286;2022-07-29T16:03:52;29.00;47.80
5461;DHT22;2753;49.196;8.286;2022-07-29T16:06:18;29.00;47.80
5461;DHT22;2753;49.196;8.286;2022-07-29T16:08:44;29.10;48.10
5461;DHT22;2753;49.196;8.286;2022-07-29T16:11:10;29.00;47.70
5461;DHT22;2753;49.196;8.286;2022-07-29T16:13:35;28.90;47.50
5461;DHT22;2753;49.196;8.286;2022-07-29T16:16:01;28.90;47.40
5461;DHT22;2753;49.196;8.286;2022-07-29T16:18:27;28.90;48.00
5461;DHT22;2753;49.196;8.286;2022-07-29T16:20:53;28.90;47.10
5461;DHT22;2753;49.196;8.286;2022-07-29T16:23:19;28.90;46.50
5461;DHT22;2753;49.196;8.286;2022-07-29T16:25:44;28.90;46.90
5461;DHT22;2753;49.196;8.286;2022-07-29T16:28:10;28.80;46.00
5461;DHT22;2753;49.196;8.286;2022-07-29T16:30:36;28.90;46.70
5461;DHT22;2753;49.196;8.286;2022-07-29T16:33:02;28.90;46.50
5461;DHT22;2753;49.196;8.286;2022-07-29T16:35:28;28.90;46.20
5461;DHT22;2753;49.196;8.286;2022-07-29T16:37:55;29.00;44.10
5461;DHT22;2753;49.196;8.286;2022-07-29T16:40:21;29.00;41.80
5461;DHT22;2753;49.196;8.286;2022-07-29T16:42:47;29.00;41.30
5461;DHT22;2753;49.196;8.286;2022-07-29T16:45:13;29.00;41.40
5461;DHT22;2753;49.196;8.286;2022-07-29T16:47:39;29.00;41.70